sensor_id;sensor_type;location;lat;lon;timestamp;temperature;humidity
37310;DHT22;23195;47.744;7.358;2023-03-01T06:45:38;-0.80;99.90
37310;DHT22;23195;47.744;7.358;2023-03-01T06:48:04;-2.20;99.90
37310;DHT22;23195;47.744;7.358;2023-03-01T06:50:30;-2.20;99.90
37310;DHT22;23195;47.744;7.358;2023-03-01T06:52:57;-2.10;99.90
37310;DHT22;23195;47.744;7.358;2023-03-01T06:55:22;-2.10;99.90
37310;DHT22;23195;47.744;7.358;2023-03-01T06:57:48;-1.90;99.90
37310;DHT22;23195;47.744;7.358;2023-03-01T07:00:14;-1.80;99.90
37310;DHT22;23195;47.744;7.358;2023-03-01T07:02:43;-1.70;99.90
37310;DHT22;23195;47.744;7.358;2023-03-01T07:05:09;-1.70;99.90
37310;DHT22;23195;47.744;7.358;2023-03-01T07:07:37;-1.60;99.90
37310;DHT22;23195;47.744;7.358;2023-03-01T07:10:12;-1.40;99.90
37310;DHT22;23195;47.744;7.358;2023-03-01T07:12:41;-2.00;99.90
37310;DHT22;23195;47.744;7.358;2023-03-01T07:15:12;-1.20;99.90
37310;DHT22;23195;47.744;7.358;2023-03-01T07:17:41;-1.20;99.90
37310;DHT22;23195;47.744;7.358;2023-03-01T07:20:12;-2.00;99.90
37310;DHT22;23195;47.744;7.358;2023-03-01T07:22:41;-1.10;99.90
37310;DHT22;23195;47.744;7.358;2023-03-01T07:25:25;-2.00;99.90
37310;DHT22;23195;47.744;7.358;2023-03-01T07:31:26;-0.20;99.90
37310;DHT22;23195;47.744;7.358;2023-03-01T07:34:12;-0.70;99.90
37310;DHT22;23195;47.744;7.358;2023-03-01T07:36:38;-0.60;99.90
37310;DHT22;23195;47.744;7.358;2023-03-01T07:39:05;-1.40;99.90
37310;DHT22;23195;47.744;7.358;2023-03-01T07:41:30;-0.60;99.90
37310;DHT22;23195;47.744;7.358;2023-03-01T07:43:56;-0.50;99.90
37310;DHT22;23195;47.744;7.358;2023-03-01T07:46:22;-0.50;99.90
37310;DHT22;23195;47.744;7.358;2023-03-01T07:48:48;-0.60;99.90
37310;DHT22;23195;47.744;7.358;2023-03-01T07:51:14;-0.50;99.90
37310;DHT22;23195;47.744;7.358;2023-03-01T07:53:40;-0.50;99.90
37310;DHT22;23195;47.744;7.358;2023-03-01T07:56:08;-0.30;99.90
37310;DHT22;23195;47.744;7.358;2023-03-01T07:58:35;0.10;99.90
37310;DHT22;23195;47.744;7.358;2023-03-01T08:01:07;-0.20;99.90
37310;DHT22;23195;47.744;7.358;2023-03-01T08:03:33;-0.10;99.90
37310;DHT22;23195;47.744;7.358;2023-03-01T08:06:03;0.00;99.90
37310;DHT22;23195;47.744;7.358;2023-03-01T08:08:30;0.00;99.90
37310;DHT22;23195;47.744;7.358;2023-03-01T08:10:57;-0.10;99.90
37310;DHT22;23195;47.744;7.358;2023-03-01T08:13:22;-0.20;99.90
37310;DHT22;23195;47.744;7.358;2023-03-01T08:15:49;-0.10;99.90
37310;DHT22;23195;47.744;7.358;2023-03-01T08:18:17;0.00;99.90
37310;DHT22;23195;47.744;7.358;2023-03-01T08:20:44;0.10;99.90
37310;DHT22;23195;47.744;7.358;2023-03-01T08:23:10;0.30;99.90
37310;DHT22;23195;47.744;7.358;2023-03-01T08:25:38;0.40;99.90
37310;DHT22;23195;47.744;7.358;2023-03-01T08:28:04;0.40;99.90
37310;DHT22;23195;47.744;7.358;2023-03-01T08:30:30;0.30;99.90
37310;DHT22;23195;47.744;7.358;2023-03-01T08:32:55;0.30;99.90
37310;DHT22;23195;47.744;7.358;2023-03-01T08:35:21;0.40;99.90
37310;DHT22;23195;47.744;7.358;2023-03-01T08:37:47;0.40;99.90
37310;DHT22;23195;47.744;7.358;2023-03-01T08:40:13;0.50;99.90
37310;DHT22;23195;47.744;7.358;2023-03-01T08:42:41;0.60;99.90
37310;DHT22;23195;47.744;7.358;2023-03-01T08:45:09;0.70;99.90
37310;DHT22;23195;47.744;7.358;2023-03-01T08:47:36;0.80;99.90
37310;DHT22;23195;47.744;7.358;2023-03-01T08:50:03;0.80;99.90
37310;DHT22;23195;47.744;7.358;2023-03-01T08:52:29;0.80;99.90
37310;DHT22;23195;47.744;7.358;2023-03-01T08:54:58;0.70;99.90
37310;DHT22;23195;47.744;7.358;2023-03-01T08:57:24;0.50;99.90
37310;DHT22;23195;47.744;7.358;2023-03-01T08:59:49;1.00;99.90
37310;DHT22;23195;47.744;7.358;2023-03-01T09:02:17;1.10;99.90
37310;DHT22;23195;47.744;7.358;2023-03-01T09:04:43;1.10;99.90
37310;DHT22;23195;47.744;7.358;2023-03-01T09:07:12;1.20;99.90
37310;DHT22;23195;47.744;7.358;2023-03-01T09:09:38;1.40;99.90
37310;DHT22;23195;47.744;7.358;2023-03-01T09:12:04;1.30;99.90
37310;DHT22;23195;47.744;7.358;2023-03-01T09:14:30;0.80;99.90
37310;DHT22;23195;47.744;7.358;2023-03-01T09:16:56;1.30;99.90
37310;DHT22;23195;47.744;7.358;2023-03-01T09:19:22;1.40;99.90
37310;DHT22;23195;47.744;7.358;2023-03-01T09:21:50;1.20;99.90
37310;DHT22;23195;47.744;7.358;2023-03-01T09:24:24;1.30;99.90
37310;DHT22;23195;47.744;7.358;2023-03-01T09:26:54;1.60;99.90
37310;DHT22;23195;47.744;7.358;2023-03-01T09:29:23;1.80;99.90
37310;DHT22;23195;47.744;7.358;2023-03-01T09:31:49;2.00;99.90
37310;DHT22;23195;47.744;7.358;2023-03-01T09:34:15;1.90;99.90
37310;DHT22;23195;47.744;7.358;2023-03-01T09:36:44;1.90;99.90
37310;DHT22;23195;47.744;7.358;2023-03-01T09:39:10;2.00;99.90
37310;DHT22;23195;47.744;7.358;2023-03-01T09:42:00;1.10;99.90
37310;DHT22;23195;47.744;7.358;2023-03-01T09:44:37;2.10;99.90
37310;DHT22;23195;47.744;7.358;2023-03-01T09:47:05;2.30;99.90
37310;DHT22;23195;47.744;7.358;2023-03-01T09:49:57;2.20;99.90
37310;DHT22;23195;47.744;7.358;2023-03-01T09:52:36;1.90;99.90
37310;DHT22;23195;47.744;7.358;2023-03-01T09:55:16;1.80;99.90
37310;DHT22;23195;47.744;7.358;2023-03-01T10:00:43;2.10;99.90
37310;DHT22;23195;47.744;7.358;2023-03-01T10:03:32;2.20;99.90
37310;DHT22;23195;47.744;7.358;2023-03-01T10:06:06;2.20;99.90
37310;DHT22;23195;47.744;7.358;2023-03-01T10:11:24;2.40;99.90
37310;DHT22;23195;47.744;7.358;2023-03-01T10:17:02;2.70;99.90
37310;DHT22;23195;47.744;7.358;2023-03-01T10:19:44;2.70;99.90
37310;DHT22;23195;47.744;7.358;2023-03-01T10:22:22;2.80;99.90
37310;DHT22;23195;47.744;7.358;2023-03-01T10:24:56;2.90;99.90
37310;DHT22;23195;47.744;7.358;2023-03-01T10:27:34;3.00;99.90
37310;DHT22;23195;47.744;7.358;2023-03-01T10:30:14;3.20;99.90
37310;DHT22;23195;47.744;7.358;2023-03-01T10:32:45;3.40;99.90
37310;DHT22;23195;47.744;7.358;2023-03-01T10:38:19;3.60;99.90
37310;DHT22;23195;47.744;7.358;2023-03-01T10:40:57;3.60;99.90
37310;DHT22;23195;47.744;7.358;2023-03-01T10:43:28;3.90;99.90
37310;DHT22;23195;47.744;7.358;2023-03-01T10:45:59;3.80;99.90
37310;DHT22;23195;47.744;7.358;2023-03-01T10:48:26;3.80;99.90
37310;DHT22;23195;47.744;7.358;2023-03-01T10:53:36;4.00;99.90
37310;DHT22;23195;47.744;7.358;2023-03-01T10:56:06;4.30;99.90
37310;DHT22;23195;47.744;7.358;2023-03-01T10:58:34;4.50;99.90
37310;DHT22;23195;47.744;7.358;2023-03-01T11:01:04;4.30;99.90
37310;DHT22;23195;47.744;7.358;2023-03-01T11:03:38;4.40;99.90
37310;DHT22;23195;47.744;7.358;2023-03-01T11:09:15;4.40;99.90
37310;DHT22;23195;47.744;7.358;2023-03-01T11:11:41;4.50;99.90
37310;DHT22;23195;47.744;7.358;2023-03-01T11:14:16;4.80;99.90
37310;DHT22;23195;47.744;7.358;2023-03-01T11:16:45;4.80;99.90
37310;DHT22;23195;47.744;7.358;2023-03-01T11:24:17;5.10;99.90
37310;DHT22;23195;47.744;7.358;2023-03-01T11:26:55;5.10;99.90
37310;DHT22;23195;47.744;7.358;2023-03-01T11:31:59;5.30;99.90
37310;DHT22;23195;47.744;7.358;2023-03-01T11:34:55;5.60;99.90
37310;DHT22;23195;47.744;7.358;2023-03-01T11:38:03;5.50;99.90
37310;DHT22;23195;47.744;7.358;2023-03-01T11:40:53;5.50;99.90
37310;DHT22;23195;47.744;7.358;2023-03-01T11:54:38;5.40;99.90
37310;DHT22;23195;47.744;7.358;2023-03-01T12:00:36;5.60;99.90
37310;DHT22;23195;47.744;7.358;2023-03-01T12:19:33;5.40;99.90
37310;DHT22;23195;47.744;7.358;2023-03-01T12:22:21;5.50;99.90
37310;DHT22;23195;47.744;7.358;2023-03-01T12:30:48;5.60;99.90
37310;DHT22;23195;47.744;7.358;2023-03-01T12:33:59;5.50;99.90
37310;DHT22;23195;47.744;7.358;2023-03-01T12:42:55;5.40;99.90
37310;DHT22;23195;47.744;7.358;2023-03-01T12:50:52;5.40;99.90
37310;DHT22;23195;47.744;7.358;2023-03-01T12:53:42;5.50;99.90
37310;DHT22;23195;47.744;7.358;2023-03-01T12:56:11;5.40;99.90
37310;DHT22;23195;47.744;7.358;2023-03-01T12:58:48;5.40;99.90
37310;DHT22;23195;47.744;7.358;2023-03-01T13:01:36;5.50;99.90
37310;DHT22;23195;47.744;7.358;2023-03-01T13:11:53;6.10;99.90
37310;DHT22;23195;47.744;7.358;2023-03-01T13:16:51;5.90;99.90
37310;DHT22;23195;47.744;7.358;2023-03-01T13:21:54;5.60;99.90
37310;DHT22;23195;47.744;7.358;2023-03-01T13:24:37;5.80;99.90
37310;DHT22;23195;47.744;7.358;2023-03-01T13:29:54;5.90;99.90
37310;DHT22;23195;47.744;7.358;2023-03-01T13:32:27;5.90;99.90
37310;DHT22;23195;47.744;7.358;2023-03-01T13:34:56;6.00;99.90
37310;DHT22;23195;47.744;7.358;2023-03-01T13:37:32;5.90;99.90
37310;DHT22;23195;47.744;7.358;2023-03-01T13:40:00;5.80;99.90
37310;DHT22;23195;47.744;7.358;2023-03-01T13:45:19;5.90;99.90
37310;DHT22;23195;47.744;7.358;2023-03-01T13:47:48;5.90;99.90
37310;DHT22;23195;47.744;7.358;2023-03-01T13:50:24;5.90;99.90
37310;DHT22;23195;47.744;7.358;2023-03-01T13:52:53;5.90;99.90
37310;DHT22;23195;47.744;7.358;2023-03-01T13:55:24;5.90;99.90
37310;DHT22;23195;47.744;7.358;2023-03-01T13:57:55;6.10;99.90
37310;DHT22;23195;47.744;7.358;2023-03-01T14:00:32;6.20;99.90
37310;DHT22;23195;47.744;7.358;2023-03-01T14:03:13;6.20;99.90
37310;DHT22;23195;47.744;7.358;2023-03-01T14:05:41;6.10;99.90
37310;DHT22;23195;47.744;7.358;2023-03-01T14:08:22;6.20;99.90
37310;DHT22;23195;47.744;7.358;2023-03-01T14:13:38;6.00;99.90
37310;DHT22;23195;47.744;7.358;2023-03-01T14:18:52;6.50;99.90
37310;DHT22;23195;47.744;7.358;2023-03-01T14:21:22;6.40;99.90
37310;DHT22;23195;47.744;7.358;2023-03-01T14:23:48;6.40;99.90
37310;DHT22;23195;47.744;7.358;2023-03-01T14:26:21;6.40;99.90
37310;DHT22;23195;47.744;7.358;2023-03-01T14:28:48;6.60;99.90
37310;DHT22;23195;47.744;7.358;2023-03-01T14:31:37;5.60;99.90
37310;DHT22;23195;47.744;7.358;2023-03-01T14:34:03;6.30;99.90
37310;DHT22;23195;47.744;7.358;2023-03-01T14:36:32;6.30;99.90
37310;DHT22;23195;47.744;7.358;2023-03-01T14:38:58;6.20;99.90
37310;DHT22;23195;47.744;7.358;2023-03-01T14:41:34;5.90;99.90
37310;DHT22;23195;47.744;7.358;2023-03-01T14:44:07;5.90;99.90
37310;DHT22;23195;47.744;7.358;2023-03-01T14:46:39;6.10;99.90
37310;DHT22;23195;47.744;7.358;2023-03-01T14:49:21;6.00;99.90
37310;DHT22;23195;47.744;7.358;2023-03-01T14:52:01;6.00;99.90
37310;DHT22;23195;47.744;7.358;2023-03-01T14:54:35;6.10;99.90
37310;DHT22;23195;47.744;7.358;2023-03-01T14:57:12;6.30;99.90
37310;DHT22;23195;47.744;7.358;2023-03-01T14:59:39;6.30;99.90
37310;DHT22;23195;47.744;7.358;2023-03-01T15:02:13;6.20;99.90
37310;DHT22;23195;47.744;7.358;2023-03-01T15:04:45;6.30;99.90
37310;DHT22;23195;47.744;7.358;2023-03-01T15:07:16;6.00;99.90
37310;DHT22;23195;47.744;7.358;2023-03-01T15:09:42;6.00;99.90
37310;DHT22;23195;47.744;7.358;2023-03-01T15:14:53;5.80;99.90
37310;DHT22;23195;47.744;7.358;2023-03-01T15:17:39;5.70;99.90
37310;DHT22;23195;47.744;7.358;2023-03-01T15:20:15;5.80;99.90
37310;DHT22;23195;47.744;7.358;2023-03-01T15:22:44;5.80;99.90
37310;DHT22;23195;47.744;7.358;2023-03-01T15:25:26;5.80;99.90
37310;DHT22;23195;47.744;7.358;2023-03-01T15:27:53;5.80;99.90
37310;DHT22;23195;47.744;7.358;2023-03-01T15:30:29;4.80;99.90
37310;DHT22;23195;47.744;7.358;2023-03-01T15:33:29;5.70;99.90
37310;DHT22;23195;47.744;7.358;2023-03-01T15:36:00;5.60;99.90
37310;DHT22;23195;47.744;7.358;2023-03-01T15:38:53;5.40;99.90
37310;DHT22;23195;47.744;7.358;2023-03-01T15:41:27;5.40;99.90
37310;DHT22;23195;47.744;7.358;2023-03-01T15:43:57;5.40;99.90
37310;DHT22;23195;47.744;7.358;2023-03-01T15:46:32;5.20;99.90
37310;DHT22;23195;47.744;7.358;2023-03-01T15:49:02;5.20;99.90
37310;DHT22;23195;47.744;7.358;2023-03-01T15:54:06;5.00;99.90
37310;DHT22;23195;47.744;7.358;2023-03-01T15:56:37;5.10;99.90
37310;DHT22;23195;47.744;7.358;2023-03-01T15:59:03;5.00;99.90
37310;DHT22;23195;47.744;7.358;2023-03-01T16:01:30;4.80;99.90
37310;DHT22;23195;47.744;7.358;2023-03-01T16:03:56;4.90;99.90
37310;DHT22;23195;47.744;7.358;2023-03-01T16:06:23;4.80;99.90
37310;DHT22;23195;47.744;7.358;2023-03-01T16:08:49;4.80;99.90
37310;DHT22;23195;47.744;7.358;2023-03-01T16:11:19;4.80;99.90
37310;DHT22;23195;47.744;7.358;2023-03-01T16:13:45;4.90;99.90
37310;DHT22;23195;47.744;7.358;2023-03-01T16:16:12;4.80;99.90
37310;DHT22;23195;47.744;7.358;2023-03-01T16:18:43;4.80;99.90
37310;DHT22;23195;47.744;7.358;2023-03-01T16:21:13;4.70;99.90
37310;DHT22;23195;47.744;7.358;2023-03-01T16:23:41;4.70;99.90
37310;DHT22;23195;47.744;7.358;2023-03-01T16:26:07;4.70;99.90
37310;DHT22;23195;47.744;7.358;2023-03-01T16:28:33;4.60;99.90
37310;DHT22;23195;47.744;7.358;2023-03-01T16:30:59;4.50;99.90
37310;DHT22;23195;47.744;7.358;2023-03-01T16:33:27;4.40;99.90
37310;DHT22;23195;47.744;7.358;2023-03-01T16:35:52;4.30;99.90
37310;DHT22;23195;47.744;7.358;2023-03-01T16:38:21;4.20;99.90
37310;DHT22;23195;47.744;7.358;2023-03-01T16:40:49;4.20;99.90
37310;DHT22;23195;47.744;7.358;2023-03-01T16:43:15;4.20;99.90
37310;DHT22;23195;47.744;7.358;2023-03-01T16:45:41;4.10;99.90
37310;DHT22;23195;47.744;7.358;2023-03-01T16:48:10;3.90;99.90
37310;DHT22;23195;47.744;7.358;2023-03-01T16:50:36;3.90;99.90
37310;DHT22;23195;47.744;7.358;2023-03-01T16:53:05;3.90;99.90
37310;DHT22;23195;47.744;7.358;2023-03-01T16:55:31;3.60;99.90
37310;DHT22;23195;47.744;7.358;2023-03-01T16:57:57;3.90;99.90
37310;DHT22;23195;47.744;7.358;2023-03-01T17:00:23;3.80;99.90
37310;DHT22;23195;47.744;7.358;2023-03-01T17:02:48;3.90;99.90
37310;DHT22;23195;47.744;7.358;2023-03-01T17:05:14;3.80;99.90
37310;DHT22;23195;47.744;7.358;2023-03-01T17:07:40;3.80;99.90
37310;DHT22;23195;47.744;7.358;2023-03-01T17:10:10;3.80;99.90
37310;DHT22;23195;47.744;7.358;2023-03-01T17:12:39;3.70;99.90
37310;DHT22;23195;47.744;7.358;2023-03-01T17:15:06;3.60;99.90
37310;DHT22;23195;47.744;7.358;2023-03-01T17:17:32;3.50;99.90
37310;DHT22;23195;47.744;7.358;2023-03-01T17:19:59;3.50;99.90
37310;DHT22;23195;47.744;7.358;2023-03-01T17:22:25;3.40;99.90
37310;DHT22;23195;47.744;7.358;2023-03-01T17:24:51;3.30;99.90
37310;DHT22;23195;47.744;7.358;2023-03-01T17:27:17;3.20;99.90
37310;DHT22;23195;47.744;7.358;2023-03-01T17:29:46;3.20;99.90
37310;DHT22;23195;47.744;7.358;2023-03-01T17:32:13;3.20;99.90
37310;DHT22;23195;47.744;7.358;2023-03-01T17:34:56;3.10;99.90
37310;DHT22;23195;47.744;7.358;2023-03-01T17:37:25;3.10;99.90
37310;DHT22;23195;47.744;7.358;2023-03-01T17:39:51;3.10;99.90
37310;DHT22;23195;47.744;7.358;2023-03-01T17:42:17;3.10;99.90
37310;DHT22;23195;47.744;7.358;2023-03-01T17:44:45;3.20;99.90
37310;DHT22;23195;47.744;7.358;2023-03-01T17:47:13;3.20;99.90
37310;DHT22;23195;47.744;7.358;2023-03-01T17:49:39;3.20;99.90
37310;DHT22;23195;47.744;7.358;2023-03-01T17:52:05;3.30;99.90
37310;DHT22;23195;47.744;7.358;2023-03-01T17:54:31;3.20;99.90
37310;DHT22;23195;47.744;7.358;2023-03-01T17:56:58;3.20;99.90
37310;DHT22;23195;47.744;7.358;2023-03-01T17:59:24;3.30;99.90
37310;DHT22;23195;47.744;7.358;2023-03-01T18:01:59;3.30;99.90
37310;DHT22;23195;47.744;7.358;2023-03-01T18:04:26;3.30;99.90
37310;DHT22;23195;47.744;7.358;2023-03-01T18:06:55;3.30;99.90
37310;DHT22;23195;47.744;7.358;2023-03-01T18:09:21;3.30;99.90
37310;DHT22;23195;47.744;7.358;2023-03-01T18:11:47;2.70;99.90
37310;DHT22;23195;47.744;7.358;2023-03-01T18:14:13;3.40;99.90
37310;DHT22;23195;47.744;7.358;2023-03-01T18:16:39;3.40;99.90
37310;DHT22;23195;47.744;7.358;2023-03-01T18:19:05;3.30;99.90
37310;DHT22;23195;47.744;7.358;2023-03-01T18:21:31;3.40;99.90
37310;DHT22;23195;47.744;7.358;2023-03-01T18:23:59;3.30;99.90
37310;DHT22;23195;47.744;7.358;2023-03-01T18:26:26;3.30;99.90
37310;DHT22;23195;47.744;7.358;2023-03-01T18:28:54;3.30;99.90
37310;DHT22;23195;47.744;7.358;2023-03-01T18:31:23;3.30;99.90
37310;DHT22;23195;47.744;7.358;2023-03-01T18:33:51;3.40;99.90
37310;DHT22;23195;47.744;7.358;2023-03-01T18:36:21;3.40;99.90
37310;DHT22;23195;47.744;7.358;2023-03-01T18:38:47;3.50;99.90
37310;DHT22;23195;47.744;7.358;2023-03-01T18:41:14;3.50;99.90
37310;DHT22;23195;47.744;7.358;2023-03-01T18:43:40;3.50;99.90
37310;DHT22;23195;47.744;7.358;2023-03-01T18:46:06;3.50;99.90
37310;DHT22;23195;47.744;7.358;2023-03-01T18:48:32;3.60;99.90
37310;DHT22;23195;47.744;7.358;2023-03-01T18:51:10;3.60;99.90
37310;DHT22;23195;47.744;7.358;2023-03-01T18:53:38;3.50;99.90
37310;DHT22;23195;47.744;7.358;2023-03-01T18:56:08;3.50;99.90
37310;DHT22;23195;47.744;7.358;2023-03-01T18:58:34;3.50;99.90
37310;DHT22;23195;47.744;7.358;2023-03-01T19:01:15;3.40;99.90
37310;DHT22;23195;47.744;7.358;2023-03-01T19:03:41;3.40;99.90
37310;DHT22;23195;47.744;7.358;2023-03-01T19:06:08;3.40;99.90
37310;DHT22;23195;47.744;7.358;2023-03-01T19:08:34;3.50;99.90
37310;DHT22;23195;47.744;7.358;2023-03-01T19:11:01;3.50;99.90
37310;DHT22;23195;47.744;7.358;2023-03-01T19:17:07;3.50;99.90
37310;DHT22;23195;47.744;7.358;2023-03-01T19:19:39;3.50;99.90
37310;DHT22;23195;47.744;7.358;2023-03-01T19:22:20;3.50;99.90
37310;DHT22;23195;47.744;7.358;2023-03-01T19:24:46;3.60;99.90
37310;DHT22;23195;47.744;7.358;2023-03-01T19:28:08;3.60;99.90
37310;DHT22;23195;47.744;7.358;2023-03-01T19:30:59;3.20;99.90
37310;DHT22;23195;47.744;7.358;2023-03-01T19:33:31;3.60;99.90
37310;DHT22;23195;47.744;7.358;2023-03-01T19:36:01;3.70;99.90
37310;DHT22;23195;47.744;7.358;2023-03-01T19:38:34;3.70;99.90
37310;DHT22;23195;47.744;7.358;2023-03-01T19:41:15;3.60;99.90
37310;DHT22;23195;47.744;7.358;2023-03-01T19:43:45;3.60;99.90
37310;DHT22;23195;47.744;7.358;2023-03-01T19:46:11;2.40;99.90
37310;DHT22;23195;47.744;7.358;2023-03-01T19:48:37;3.70;99.90
37310;DHT22;23195;47.744;7.358;2023-03-01T19:51:07;3.40;99.90
37310;DHT22;23195;47.744;7.358;2023-03-01T19:53:37;3.60;99.90
37310;DHT22;23195;47.744;7.358;2023-03-01T19:56:04;3.60;99.90
37310;DHT22;23195;47.744;7.358;2023-03-01T19:58:31;3.60;99.90
37310;DHT22;23195;47.744;7.358;2023-03-01T20:01:00;3.60;99.90
37310;DHT22;23195;47.744;7.358;2023-03-01T20:03:28;3.50;99.90
37310;DHT22;23195;47.744;7.358;2023-03-01T20:05:54;3.50;99.90
37310;DHT22;23195;47.744;7.358;2023-03-01T20:08:21;3.50;99.90
37310;DHT22;23195;47.744;7.358;2023-03-01T20:10:47;3.50;99.90
37310;DHT22;23195;47.744;7.358;2023-03-01T20:13:13;3.50;99.90
37310;DHT22;23195;47.744;7.358;2023-03-01T20:15:45;3.60;99.90
37310;DHT22;23195;47.744;7.358;2023-03-01T20:18:14;3.60;99.90
37310;DHT22;23195;47.744;7.358;2023-03-01T20:20:40;3.60;99.90
37310;DHT22;23195;47.744;7.358;2023-03-01T20:23:05;3.60;99.90
37310;DHT22;23195;47.744;7.358;2023-03-01T20:25:31;3.60;99.90
37310;DHT22;23195;47.744;7.358;2023-03-01T20:27:57;3.60;99.90
37310;DHT22;23195;47.744;7.358;2023-03-01T20:30:23;3.50;99.90
37310;DHT22;23195;47.744;7.358;2023-03-01T20:32:48;3.60;99.90
37310;DHT22;23195;47.744;7.358;2023-03-01T20:35:14;3.60;99.90
37310;DHT22;23195;47.744;7.358;2023-03-01T20:37:40;3.60;99.90
37310;DHT22;23195;47.744;7.358;2023-03-01T20:40:06;3.60;99.90
37310;DHT22;23195;47.744;7.358;2023-03-01T20:42:33;3.70;99.90
37310;DHT22;23195;47.744;7.358;2023-03-01T20:44:59;3.60;99.90
37310;DHT22;23195;47.744;7.358;2023-03-01T20:47:28;3.60;99.90
37310;DHT22;23195;47.744;7.358;2023-03-01T20:49:54;3.60;99.90
37310;DHT22;23195;47.744;7.358;2023-03-01T20:52:19;3.50;99.90
37310;DHT22;23195;47.744;7.358;2023-03-01T20:54:45;3.40;99.90
37310;DHT22;23195;47.744;7.358;2023-03-01T20:57:11;3.30;99.90
37310;DHT22;23195;47.744;7.358;2023-03-01T20:59:37;3.30;99.90
37310;DHT22;23195;47.744;7.358;2023-03-01T21:02:06;3.20;99.90
37310;DHT22;23195;47.744;7.358;2023-03-01T21:04:34;3.10;99.90
37310;DHT22;23195;47.744;7.358;2023-03-01T21:07:01;3.10;99.90
37310;DHT22;23195;47.744;7.358;2023-03-01T21:09:27;3.00;99.90
37310;DHT22;23195;47.744;7.358;2023-03-01T21:11:53;3.10;99.90
37310;DHT22;23195;47.744;7.358;2023-03-01T21:14:19;3.00;99.90
37310;DHT22;23195;47.744;7.358;2023-03-01T21:16:46;2.90;99.90
37310;DHT22;23195;47.744;7.358;2023-03-01T21:19:14;2.90;99.90
37310;DHT22;23195;47.744;7.358;2023-03-01T21:21:39;2.90;99.90
37310;DHT22;23195;47.744;7.358;2023-03-01T21:24:05;2.90;99.90
37310;DHT22;23195;47.744;7.358;2023-03-01T21:26:34;2.90;99.90
37310;DHT22;23195;47.744;7.358;2023-03-01T21:29:00;2.90;99.90
37310;DHT22;23195;47.744;7.358;2023-03-01T21:31:29;2.90;99.90
37310;DHT22;23195;47.744;7.358;2023-03-01T21:34:00;2.90;99.90
37310;DHT22;23195;47.744;7.358;2023-03-01T21:36:28;2.90;99.90
37310;DHT22;23195;47.744;7.358;2023-03-01T21:38:55;2.80;99.90
37310;DHT22;23195;47.744;7.358;2023-03-01T21:41:24;2.90;99.90
37310;DHT22;23195;47.744;7.358;2023-03-01T21:43:51;2.60;99.90
37310;DHT22;23195;47.744;7.358;2023-03-01T21:46:20;2.90;99.90
37310;DHT22;23195;47.744;7.358;2023-03-01T21:48:48;3.00;99.90
37310;DHT22;23195;47.744;7.358;2023-03-01T21:51:19;3.00;99.90
37310;DHT22;23195;47.744;7.358;2023-03-01T21:53:50;3.00;99.90
37310;DHT22;23195;47.744;7.358;2023-03-01T21:56:25;3.00;99.90
37310;DHT22;23195;47.744;7.358;2023-03-01T21:58:52;3.10;99.90
37310;DHT22;23195;47.744;7.358;2023-03-01T22:01:21;3.10;99.90
37310;DHT22;23195;47.744;7.358;2023-03-01T22:03:49;3.20;99.90
37310;DHT22;23195;47.744;7.358;2023-03-01T22:08:50;3.10;99.90
37310;DHT22;23195;47.744;7.358;2023-03-01T22:11:18;3.20;99.90
37310;DHT22;23195;47.744;7.358;2023-03-01T22:13:45;3.10;99.90
37310;DHT22;23195;47.744;7.358;2023-03-01T22:16:14;3.20;99.90
37310;DHT22;23195;47.744;7.358;2023-03-01T22:18:40;3.10;99.90
37310;DHT22;23195;47.744;7.358;2023-03-01T22:21:06;3.10;99.90
37310;DHT22;23195;47.744;7.358;2023-03-01T22:23:37;3.20;99.90
37310;DHT22;23195;47.744;7.358;2023-03-01T22:26:03;3.10;99.90
37310;DHT22;23195;47.744;7.358;2023-03-01T22:28:29;3.10;99.90
37310;DHT22;23195;47.744;7.358;2023-03-01T22:30:55;3.10;99.90
37310;DHT22;23195;47.744;7.358;2023-03-01T22:33:21;3.20;99.90
37310;DHT22;23195;47.744;7.358;2023-03-01T22:35:50;3.10;99.90
37310;DHT22;23195;47.744;7.358;2023-03-01T22:38:22;3.10;99.90
37310;DHT22;23195;47.744;7.358;2023-03-01T22:40:58;3.10;99.90
37310;DHT22;23195;47.744;7.358;2023-03-01T22:43:24;3.20;99.90
37310;DHT22;23195;47.744;7.358;2023-03-01T22:45:50;3.10;99.90
37310;DHT22;23195;47.744;7.358;2023-03-01T22:48:16;3.10;99.90
37310;DHT22;23195;47.744;7.358;2023-03-01T22:50:44;3.10;99.90
37310;DHT22;23195;47.744;7.358;2023-03-01T22:53:10;3.20;99.90
37310;DHT22;23195;47.744;7.358;2023-03-01T22:55:35;3.20;99.90
37310;DHT22;23195;47.744;7.358;2023-03-01T22:58:01;3.20;99.90
37310;DHT22;23195;47.744;7.358;2023-03-01T23:00:27;3.20;99.90
37310;DHT22;23195;47.744;7.358;2023-03-01T23:02:53;3.20;99.90
37310;DHT22;23195;47.744;7.358;2023-03-01T23:05:18;3.20;99.90
37310;DHT22;23195;47.744;7.358;2023-03-01T23:07:44;3.30;99.90
37310;DHT22;23195;47.744;7.358;2023-03-01T23:10:12;3.20;99.90
37310;DHT22;23195;47.744;7.358;2023-03-01T23:12:38;3.20;99.90
37310;DHT22;23195;47.744;7.358;2023-03-01T23:15:05;3.20;99.90
37310;DHT22;23195;47.744;7.358;2023-03-01T23:17:30;3.20;99.90
37310;DHT22;23195;47.744;7.358;2023-03-01T23:19:56;3.20;99.90
37310;DHT22;23195;47.744;7.358;2023-03-01T23:22:23;3.20;99.90
37310;DHT22;23195;47.744;7.358;2023-03-01T23:24:49;3.10;99.90
37310;DHT22;23195;47.744;7.358;2023-03-01T23:27:18;3.10;99.90
37310;DHT22;23195;47.744;7.358;2023-03-01T23:29:44;3.10;99.90
37310;DHT22;23195;47.744;7.358;2023-03-01T23:32:10;3.20;99.90
37310;DHT22;23195;47.744;7.358;2023-03-01T23:34:36;3.10;99.90
37310;DHT22;23195;47.744;7.358;2023-03-01T23:37:05;3.10;99.90
37310;DHT22;23195;47.744;7.358;2023-03-01T23:39:35;3.00;99.90
37310;DHT22;23195;47.744;7.358;2023-03-01T23:42:02;3.10;99.90
37310;DHT22;23195;47.744;7.358;2023-03-01T23:44:28;4.10;99.90
37310;DHT22;23195;47.744;7.358;2023-03-01T23:46:54;3.10;99.90
37310;DHT22;23195;47.744;7.358;2023-03-01T23:49:21;3.00;99.90
37310;DHT22;23195;47.744;7.358;2023-03-01T23:51:47;3.10;99.90
37310;DHT22;23195;47.744;7.358;2023-03-01T23:54:15;3.00;99.90
37310;DHT22;23195;47.744;7.358;2023-03-01T23:56:43;3.00;99.90
37310;DHT22;23195;47.744;7.358;2023-03-01T23:59:18;3.00;99.90
